sensor_id;sensor_type;location;lat;lon;timestamp;P1;durP1;ratioP1;P2;durP2;ratioP2
30605;SDS011;17371;51.328;3.860;2023-01-08T00:01:52;5.20;;;1.90;;
30605;SDS011;17371;51.328;3.860;2023-01-08T00:04:17;9.90;;;2.00;;
30605;SDS011;17371;51.328;3.860;2023-01-08T00:06:44;6.73;;;2.20;;
30605;SDS011;17371;51.328;3.860;2023-01-08T00:09:10;5.57;;;2.10;;
30605;SDS011;17371;51.328;3.860;2023-01-08T00:11:35;7.37;;;1.90;;
30605;SDS011;17371;51.328;3.860;2023-01-08T00:14:01;6.30;;;1.90;;
30605;SDS011;17371;51.328;3.860;2023-01-08T00:16:26;5.32;;;1.80;;
30605;SDS011;17371;51.328;3.860;2023-01-08T00:18:52;6.57;;;2.07;;
30605;SDS011;17371;51.328;3.860;2023-01-08T00:21:17;11.60;;;2.77;;
30605;SDS011;17371;51.328;3.860;2023-01-08T00:23:44;7.95;;;2.13;;
30605;SDS011;17371;51.328;3.860;2023-01-08T00:26:10;5.82;;;1.90;;
30605;SDS011;17371;51.328;3.860;2023-01-08T00:28:36;4.90;;;2.25;;
30605;SDS011;17371;51.328;3.860;2023-01-08T00:31:02;11.68;;;2.10;;
30605;SDS011;17371;51.328;3.860;2023-01-08T00:33:27;4.90;;;1.90;;
30605;SDS011;17371;51.328;3.860;2023-01-08T00:35:53;7.87;;;2.17;;
30605;SDS011;17371;51.328;3.860;2023-01-08T00:38:18;4.83;;;1.90;;
30605;SDS011;17371;51.328;3.860;2023-01-08T00:40:46;6.75;;;2.47;;
30605;SDS011;17371;51.328;3.860;2023-01-08T00:43:12;7.32;;;2.40;;
30605;SDS011;17371;51.328;3.860;2023-01-08T00:45:37;7.23;;;2.40;;
30605;SDS011;17371;51.328;3.860;2023-01-08T00:48:03;7.88;;;2.30;;
30605;SDS011;17371;51.328;3.860;2023-01-08T00:50:28;6.22;;;1.90;;
30605;SDS011;17371;51.328;3.860;2023-01-08T00:52:54;9.63;;;2.40;;
30605;SDS011;17371;51.328;3.860;2023-01-08T00:55:19;6.18;;;2.13;;
30605;SDS011;17371;51.328;3.860;2023-01-08T00:57:46;9.07;;;1.97;;
30605;SDS011;17371;51.328;3.860;2023-01-08T01:00:12;8.73;;;2.10;;
30605;SDS011;17371;51.328;3.860;2023-01-08T01:02:39;7.60;;;1.90;;
30605;SDS011;17371;51.328;3.860;2023-01-08T01:05:05;6.20;;;2.10;;
30605;SDS011;17371;51.328;3.860;2023-01-08T01:07:32;6.60;;;1.90;;
30605;SDS011;17371;51.328;3.860;2023-01-08T01:09:58;5.53;;;1.95;;
30605;SDS011;17371;51.328;3.860;2023-01-08T01:12:24;6.82;;;1.75;;
30605;SDS011;17371;51.328;3.860;2023-01-08T01:14:50;8.23;;;2.47;;
30605;SDS011;17371;51.328;3.860;2023-01-08T01:17:16;5.97;;;2.00;;
30605;SDS011;17371;51.328;3.860;2023-01-08T01:19:41;9.50;;;2.30;;
30605;SDS011;17371;51.328;3.860;2023-01-08T01:22:07;5.73;;;2.13;;
30605;SDS011;17371;51.328;3.860;2023-01-08T01:24:32;7.30;;;2.50;;
30605;SDS011;17371;51.328;3.860;2023-01-08T01:26:58;5.78;;;1.85;;
30605;SDS011;17371;51.328;3.860;2023-01-08T01:29:24;9.67;;;2.50;;
30605;SDS011;17371;51.328;3.860;2023-01-08T01:31:50;7.97;;;2.17;;
30605;SDS011;17371;51.328;3.860;2023-01-08T01:34:16;7.97;;;2.20;;
30605;SDS011;17371;51.328;3.860;2023-01-08T01:36:41;5.60;;;2.00;;
30605;SDS011;17371;51.328;3.860;2023-01-08T01:39:07;6.10;;;1.73;;
30605;SDS011;17371;51.328;3.860;2023-01-08T01:41:34;6.57;;;2.20;;
30605;SDS011;17371;51.328;3.860;2023-01-08T01:46:59;6.15;;;2.40;;
30605;SDS011;17371;51.328;3.860;2023-01-08T01:49:25;4.57;;;1.60;;
30605;SDS011;17371;51.328;3.860;2023-01-08T01:51:52;10.27;;;2.00;;
30605;SDS011;17371;51.328;3.860;2023-01-08T01:54:19;4.20;;;1.80;;
30605;SDS011;17371;51.328;3.860;2023-01-08T01:56:44;8.20;;;2.22;;
30605;SDS011;17371;51.328;3.860;2023-01-08T01:59:10;9.60;;;1.67;;
30605;SDS011;17371;51.328;3.860;2023-01-08T02:01:35;7.83;;;2.10;;
30605;SDS011;17371;51.328;3.860;2023-01-08T02:04:04;6.25;;;2.20;;
30605;SDS011;17371;51.328;3.860;2023-01-08T02:06:33;7.03;;;1.92;;
30605;SDS011;17371;51.328;3.860;2023-01-08T02:09:00;7.20;;;1.90;;
30605;SDS011;17371;51.328;3.860;2023-01-08T02:11:28;4.47;;;1.70;;
30605;SDS011;17371;51.328;3.860;2023-01-08T02:13:59;5.70;;;2.05;;
30605;SDS011;17371;51.328;3.860;2023-01-08T02:16:31;6.32;;;1.83;;
30605;SDS011;17371;51.328;3.860;2023-01-08T02:18:59;5.53;;;2.08;;
30605;SDS011;17371;51.328;3.860;2023-01-08T02:21:31;6.13;;;1.50;;
30605;SDS011;17371;51.328;3.860;2023-01-08T02:24:02;4.83;;;1.83;;
30605;SDS011;17371;51.328;3.860;2023-01-08T02:26:33;4.97;;;1.90;;
30605;SDS011;17371;51.328;3.860;2023-01-08T02:29:00;6.55;;;1.85;;
30605;SDS011;17371;51.328;3.860;2023-01-08T02:31:28;5.47;;;1.70;;
30605;SDS011;17371;51.328;3.860;2023-01-08T02:33:54;13.57;;;1.90;;
30605;SDS011;17371;51.328;3.860;2023-01-08T02:36:23;6.03;;;1.60;;
30605;SDS011;17371;51.328;3.860;2023-01-08T02:39:00;6.70;;;1.67;;
30605;SDS011;17371;51.328;3.860;2023-01-08T02:41:34;3.30;;;1.80;;
30605;SDS011;17371;51.328;3.860;2023-01-08T02:44:08;5.97;;;2.07;;
30605;SDS011;17371;51.328;3.860;2023-01-08T02:46:37;6.85;;;1.90;;
30605;SDS011;17371;51.328;3.860;2023-01-08T02:49:04;5.38;;;1.90;;
30605;SDS011;17371;51.328;3.860;2023-01-08T02:51:32;4.50;;;1.83;;
30605;SDS011;17371;51.328;3.860;2023-01-08T02:53:59;6.43;;;2.30;;
30605;SDS011;17371;51.328;3.860;2023-01-08T02:56:28;7.73;;;2.37;;
30605;SDS011;17371;51.328;3.860;2023-01-08T02:58:58;7.35;;;2.03;;
30605;SDS011;17371;51.328;3.860;2023-01-08T03:01:26;5.03;;;1.90;;
30605;SDS011;17371;51.328;3.860;2023-01-08T03:03:52;5.78;;;1.63;;
30605;SDS011;17371;51.328;3.860;2023-01-08T03:06:21;8.57;;;1.73;;
30605;SDS011;17371;51.328;3.860;2023-01-08T03:08:47;7.10;;;1.63;;
30605;SDS011;17371;51.328;3.860;2023-01-08T03:11:15;8.15;;;2.05;;
30605;SDS011;17371;51.328;3.860;2023-01-08T03:13:43;5.57;;;1.90;;
30605;SDS011;17371;51.328;3.860;2023-01-08T03:16:14;11.02;;;2.15;;
30605;SDS011;17371;51.328;3.860;2023-01-08T03:18:43;8.33;;;1.93;;
30605;SDS011;17371;51.328;3.860;2023-01-08T03:21:11;7.55;;;2.13;;
30605;SDS011;17371;51.328;3.860;2023-01-08T03:23:37;8.38;;;1.98;;
30605;SDS011;17371;51.328;3.860;2023-01-08T03:26:04;9.38;;;2.30;;
30605;SDS011;17371;51.328;3.860;2023-01-08T03:28:32;7.35;;;1.90;;
30605;SDS011;17371;51.328;3.860;2023-01-08T03:31:00;11.37;;;2.23;;
30605;SDS011;17371;51.328;3.860;2023-01-08T03:33:28;11.05;;;1.88;;
30605;SDS011;17371;51.328;3.860;2023-01-08T03:35:54;8.88;;;2.80;;
30605;SDS011;17371;51.328;3.860;2023-01-08T03:38:22;5.60;;;2.30;;
30605;SDS011;17371;51.328;3.860;2023-01-08T03:40:51;9.77;;;2.35;;
30605;SDS011;17371;51.328;3.860;2023-01-08T03:43:18;10.97;;;2.20;;
30605;SDS011;17371;51.328;3.860;2023-01-08T03:45:45;9.57;;;2.45;;
30605;SDS011;17371;51.328;3.860;2023-01-08T03:48:13;28.50;;;2.83;;
30605;SDS011;17371;51.328;3.860;2023-01-08T03:50:40;9.38;;;2.30;;
30605;SDS011;17371;51.328;3.860;2023-01-08T03:53:06;11.27;;;2.15;;
30605;SDS011;17371;51.328;3.860;2023-01-08T03:55:32;8.80;;;2.13;;
30605;SDS011;17371;51.328;3.860;2023-01-08T03:57:57;8.33;;;2.33;;
30605;SDS011;17371;51.328;3.860;2023-01-08T04:00:23;10.57;;;2.20;;
30605;SDS011;17371;51.328;3.860;2023-01-08T04:02:48;8.73;;;2.20;;
30605;SDS011;17371;51.328;3.860;2023-01-08T04:05:13;12.10;;;2.50;;
30605;SDS011;17371;51.328;3.860;2023-01-08T04:07:40;8.57;;;2.00;;
30605;SDS011;17371;51.328;3.860;2023-01-08T04:10:06;13.77;;;3.50;;
30605;SDS011;17371;51.328;3.860;2023-01-08T04:12:31;11.48;;;2.25;;
30605;SDS011;17371;51.328;3.860;2023-01-08T04:14:57;6.70;;;2.10;;
30605;SDS011;17371;51.328;3.860;2023-01-08T04:17:22;9.93;;;2.30;;
30605;SDS011;17371;51.328;3.860;2023-01-08T04:19:48;11.57;;;2.93;;
30605;SDS011;17371;51.328;3.860;2023-01-08T04:22:13;9.20;;;2.67;;
30605;SDS011;17371;51.328;3.860;2023-01-08T04:24:40;7.23;;;2.13;;
30605;SDS011;17371;51.328;3.860;2023-01-08T04:27:05;9.53;;;2.80;;
30605;SDS011;17371;51.328;3.860;2023-01-08T04:29:30;15.02;;;3.45;;
30605;SDS011;17371;51.328;3.860;2023-01-08T04:31:56;10.37;;;2.70;;
30605;SDS011;17371;51.328;3.860;2023-01-08T04:34:21;10.03;;;2.40;;
30605;SDS011;17371;51.328;3.860;2023-01-08T04:36:47;10.83;;;2.47;;
30605;SDS011;17371;51.328;3.860;2023-01-08T04:39:12;8.33;;;2.20;;
30605;SDS011;17371;51.328;3.860;2023-01-08T04:41:39;12.50;;;2.00;;
30605;SDS011;17371;51.328;3.860;2023-01-08T04:44:04;9.45;;;2.10;;
30605;SDS011;17371;51.328;3.860;2023-01-08T04:46:30;8.77;;;2.35;;
30605;SDS011;17371;51.328;3.860;2023-01-08T04:48:55;7.13;;;1.67;;
30605;SDS011;17371;51.328;3.860;2023-01-08T04:51:20;8.20;;;1.97;;
30605;SDS011;17371;51.328;3.860;2023-01-08T04:53:46;9.53;;;2.27;;
30605;SDS011;17371;51.328;3.860;2023-01-08T04:56:12;9.97;;;2.93;;
30605;SDS011;17371;51.328;3.860;2023-01-08T04:58:38;10.50;;;2.03;;
30605;SDS011;17371;51.328;3.860;2023-01-08T05:01:08;11.60;;;1.73;;
30605;SDS011;17371;51.328;3.860;2023-01-08T05:03:35;8.50;;;2.08;;
30605;SDS011;17371;51.328;3.860;2023-01-08T05:06:01;13.73;;;2.10;;
30605;SDS011;17371;51.328;3.860;2023-01-08T05:08:27;6.77;;;1.67;;
30605;SDS011;17371;51.328;3.860;2023-01-08T05:10:52;11.18;;;2.00;;
30605;SDS011;17371;51.328;3.860;2023-01-08T05:13:18;6.30;;;1.90;;
30605;SDS011;17371;51.328;3.860;2023-01-08T05:15:44;8.20;;;1.90;;
30605;SDS011;17371;51.328;3.860;2023-01-08T05:18:10;13.43;;;2.25;;
30605;SDS011;17371;51.328;3.860;2023-01-08T05:20:35;7.57;;;3.03;;
30605;SDS011;17371;51.328;3.860;2023-01-08T05:23:01;13.40;;;1.97;;
30605;SDS011;17371;51.328;3.860;2023-01-08T05:25:26;12.37;;;1.80;;
30605;SDS011;17371;51.328;3.860;2023-01-08T05:27:51;15.20;;;2.43;;
30605;SDS011;17371;51.328;3.860;2023-01-08T05:30:17;9.20;;;3.10;;
30605;SDS011;17371;51.328;3.860;2023-01-08T05:32:44;14.13;;;2.53;;
30605;SDS011;17371;51.328;3.860;2023-01-08T05:35:09;7.55;;;2.05;;
30605;SDS011;17371;51.328;3.860;2023-01-08T05:37:35;8.10;;;1.90;;
30605;SDS011;17371;51.328;3.860;2023-01-08T05:40:00;6.63;;;2.00;;
30605;SDS011;17371;51.328;3.860;2023-01-08T05:42:26;16.00;;;2.90;;
30605;SDS011;17371;51.328;3.860;2023-01-08T05:44:51;8.10;;;2.13;;
30605;SDS011;17371;51.328;3.860;2023-01-08T05:47:17;10.17;;;1.70;;
30605;SDS011;17371;51.328;3.860;2023-01-08T05:49:43;12.10;;;2.40;;
30605;SDS011;17371;51.328;3.860;2023-01-08T05:52:09;7.70;;;1.90;;
30605;SDS011;17371;51.328;3.860;2023-01-08T05:54:34;11.47;;;1.70;;
30605;SDS011;17371;51.328;3.860;2023-01-08T05:56:59;5.63;;;1.80;;
30605;SDS011;17371;51.328;3.860;2023-01-08T05:59:25;9.23;;;1.70;;
30605;SDS011;17371;51.328;3.860;2023-01-08T06:01:50;8.90;;;2.10;;
30605;SDS011;17371;51.328;3.860;2023-01-08T06:04:16;14.00;;;2.30;;
30605;SDS011;17371;51.328;3.860;2023-01-08T06:06:42;9.53;;;2.40;;
30605;SDS011;17371;51.328;3.860;2023-01-08T06:09:08;13.10;;;2.50;;
30605;SDS011;17371;51.328;3.860;2023-01-08T06:11:33;10.37;;;2.23;;
30605;SDS011;17371;51.328;3.860;2023-01-08T06:13:59;13.00;;;2.67;;
30605;SDS011;17371;51.328;3.860;2023-01-08T06:16:24;10.57;;;2.10;;
30605;SDS011;17371;51.328;3.860;2023-01-08T06:18:49;14.70;;;2.97;;
30605;SDS011;17371;51.328;3.860;2023-01-08T06:21:15;13.48;;;2.08;;
30605;SDS011;17371;51.328;3.860;2023-01-08T06:23:41;13.30;;;1.93;;
30605;SDS011;17371;51.328;3.860;2023-01-08T06:26:07;13.75;;;2.53;;
30605;SDS011;17371;51.328;3.860;2023-01-08T06:28:32;9.97;;;2.10;;
30605;SDS011;17371;51.328;3.860;2023-01-08T06:30:58;13.40;;;2.70;;
30605;SDS011;17371;51.328;3.860;2023-01-08T06:33:24;11.07;;;2.10;;
30605;SDS011;17371;51.328;3.860;2023-01-08T06:35:49;11.03;;;2.23;;
30605;SDS011;17371;51.328;3.860;2023-01-08T06:38:15;10.13;;;2.00;;
30605;SDS011;17371;51.328;3.860;2023-01-08T06:40:42;11.90;;;1.88;;
30605;SDS011;17371;51.328;3.860;2023-01-08T06:43:07;10.90;;;2.03;;
30605;SDS011;17371;51.328;3.860;2023-01-08T06:45:32;11.23;;;2.03;;
30605;SDS011;17371;51.328;3.860;2023-01-08T06:47:59;10.40;;;2.10;;
30605;SDS011;17371;51.328;3.860;2023-01-08T06:50:24;7.67;;;2.00;;
30605;SDS011;17371;51.328;3.860;2023-01-08T06:52:53;9.43;;;2.22;;
30605;SDS011;17371;51.328;3.860;2023-01-08T06:55:19;11.27;;;2.22;;
30605;SDS011;17371;51.328;3.860;2023-01-08T06:57:46;12.47;;;2.53;;
30605;SDS011;17371;51.328;3.860;2023-01-08T07:00:12;10.23;;;2.50;;
30605;SDS011;17371;51.328;3.860;2023-01-08T07:02:38;9.52;;;1.67;;
30605;SDS011;17371;51.328;3.860;2023-01-08T07:05:04;12.50;;;2.67;;
30605;SDS011;17371;51.328;3.860;2023-01-08T07:07:29;7.65;;;1.52;;
30605;SDS011;17371;51.328;3.860;2023-01-08T07:09:55;13.10;;;2.27;;
30605;SDS011;17371;51.328;3.860;2023-01-08T07:12:20;12.47;;;2.10;;
30605;SDS011;17371;51.328;3.860;2023-01-08T07:14:47;12.53;;;2.30;;
30605;SDS011;17371;51.328;3.860;2023-01-08T07:17:12;6.63;;;2.20;;
30605;SDS011;17371;51.328;3.860;2023-01-08T07:19:37;7.93;;;2.37;;
30605;SDS011;17371;51.328;3.860;2023-01-08T07:22:03;10.03;;;2.27;;
30605;SDS011;17371;51.328;3.860;2023-01-08T07:24:28;9.85;;;2.22;;
30605;SDS011;17371;51.328;3.860;2023-01-08T07:26:54;9.93;;;2.47;;
30605;SDS011;17371;51.328;3.860;2023-01-08T07:29:19;8.20;;;2.10;;
30605;SDS011;17371;51.328;3.860;2023-01-08T07:31:46;9.53;;;1.87;;
30605;SDS011;17371;51.328;3.860;2023-01-08T07:34:11;14.13;;;2.55;;
30605;SDS011;17371;51.328;3.860;2023-01-08T07:36:37;11.30;;;2.40;;
30605;SDS011;17371;51.328;3.860;2023-01-08T07:39:02;16.50;;;2.77;;
30605;SDS011;17371;51.328;3.860;2023-01-08T07:41:28;12.25;;;2.22;;
30605;SDS011;17371;51.328;3.860;2023-01-08T07:43:53;8.52;;;2.40;;
30605;SDS011;17371;51.328;3.860;2023-01-08T07:46:18;12.37;;;2.57;;
30605;SDS011;17371;51.328;3.860;2023-01-08T07:48:45;11.33;;;2.63;;
30605;SDS011;17371;51.328;3.860;2023-01-08T07:51:10;15.90;;;2.17;;
30605;SDS011;17371;51.328;3.860;2023-01-08T07:53:36;14.33;;;2.40;;
30605;SDS011;17371;51.328;3.860;2023-01-08T07:56:02;13.43;;;2.30;;
30605;SDS011;17371;51.328;3.860;2023-01-08T07:58:29;7.77;;;2.47;;
30605;SDS011;17371;51.328;3.860;2023-01-08T08:00:54;9.43;;;1.65;;
30605;SDS011;17371;51.328;3.860;2023-01-08T08:03:20;10.20;;;2.17;;
30605;SDS011;17371;51.328;3.860;2023-01-08T08:05:47;9.30;;;2.17;;
30605;SDS011;17371;51.328;3.860;2023-01-08T08:08:12;11.90;;;2.53;;
30605;SDS011;17371;51.328;3.860;2023-01-08T08:10:38;14.55;;;2.60;;
30605;SDS011;17371;51.328;3.860;2023-01-08T08:13:04;9.32;;;2.35;;
30605;SDS011;17371;51.328;3.860;2023-01-08T08:15:31;15.38;;;2.72;;
30605;SDS011;17371;51.328;3.860;2023-01-08T08:17:56;13.90;;;2.95;;
30605;SDS011;17371;51.328;3.860;2023-01-08T08:20:22;10.93;;;2.23;;
30605;SDS011;17371;51.328;3.860;2023-01-08T08:22:48;19.10;;;3.13;;
30605;SDS011;17371;51.328;3.860;2023-01-08T08:25:14;12.27;;;2.83;;
30605;SDS011;17371;51.328;3.860;2023-01-08T08:27:39;11.33;;;2.53;;
30605;SDS011;17371;51.328;3.860;2023-01-08T08:30:06;19.43;;;2.90;;
30605;SDS011;17371;51.328;3.860;2023-01-08T08:32:33;8.15;;;2.70;;
30605;SDS011;17371;51.328;3.860;2023-01-08T08:34:58;15.87;;;3.13;;
30605;SDS011;17371;51.328;3.860;2023-01-08T08:37:24;10.27;;;2.90;;
30605;SDS011;17371;51.328;3.860;2023-01-08T08:39:50;10.80;;;2.30;;
30605;SDS011;17371;51.328;3.860;2023-01-08T08:42:16;18.52;;;2.80;;
30605;SDS011;17371;51.328;3.860;2023-01-08T08:44:41;11.02;;;3.20;;
30605;SDS011;17371;51.328;3.860;2023-01-08T08:47:07;10.57;;;2.93;;
30605;SDS011;17371;51.328;3.860;2023-01-08T08:49:32;10.57;;;2.60;;
30605;SDS011;17371;51.328;3.860;2023-01-08T08:51:57;7.73;;;2.20;;
30605;SDS011;17371;51.328;3.860;2023-01-08T08:54:23;11.53;;;2.50;;
30605;SDS011;17371;51.328;3.860;2023-01-08T08:56:49;12.37;;;2.90;;
30605;SDS011;17371;51.328;3.860;2023-01-08T08:59:15;10.00;;;2.40;;
30605;SDS011;17371;51.328;3.860;2023-01-08T09:01:40;10.20;;;2.57;;
30605;SDS011;17371;51.328;3.860;2023-01-08T09:04:06;11.00;;;2.60;;
30605;SDS011;17371;51.328;3.860;2023-01-08T09:06:31;8.93;;;2.10;;
30605;SDS011;17371;51.328;3.860;2023-01-08T09:08:57;11.43;;;2.25;;
30605;SDS011;17371;51.328;3.860;2023-01-08T09:11:22;13.73;;;2.57;;
30605;SDS011;17371;51.328;3.860;2023-01-08T09:13:49;9.27;;;2.73;;
30605;SDS011;17371;51.328;3.860;2023-01-08T09:16:14;11.55;;;2.20;;
30605;SDS011;17371;51.328;3.860;2023-01-08T09:18:40;10.37;;;2.03;;
30605;SDS011;17371;51.328;3.860;2023-01-08T09:21:07;11.73;;;2.85;;
30605;SDS011;17371;51.328;3.860;2023-01-08T09:23:33;5.83;;;2.20;;
30605;SDS011;17371;51.328;3.860;2023-01-08T09:25:58;8.33;;;1.80;;
30605;SDS011;17371;51.328;3.860;2023-01-08T09:28:24;10.80;;;2.22;;
30605;SDS011;17371;51.328;3.860;2023-01-08T09:30:51;6.97;;;2.10;;
30605;SDS011;17371;51.328;3.860;2023-01-08T09:33:16;7.68;;;1.52;;
30605;SDS011;17371;51.328;3.860;2023-01-08T09:35:42;7.43;;;1.97;;
30605;SDS011;17371;51.328;3.860;2023-01-08T09:38:08;5.63;;;1.95;;
30605;SDS011;17371;51.328;3.860;2023-01-08T09:40:34;7.20;;;1.87;;
30605;SDS011;17371;51.328;3.860;2023-01-08T09:43:02;10.60;;;2.03;;
30605;SDS011;17371;51.328;3.860;2023-01-08T09:45:29;5.60;;;2.20;;
30605;SDS011;17371;51.328;3.860;2023-01-08T09:47:56;9.82;;;1.55;;
30605;SDS011;17371;51.328;3.860;2023-01-08T09:50:23;10.15;;;2.13;;
30605;SDS011;17371;51.328;3.860;2023-01-08T09:52:50;7.53;;;1.90;;
30605;SDS011;17371;51.328;3.860;2023-01-08T09:55:16;5.47;;;2.00;;
30605;SDS011;17371;51.328;3.860;2023-01-08T09:57:41;8.10;;;1.60;;
30605;SDS011;17371;51.328;3.860;2023-01-08T10:00:11;6.32;;;1.85;;
30605;SDS011;17371;51.328;3.860;2023-01-08T10:02:38;4.88;;;1.85;;
30605;SDS011;17371;51.328;3.860;2023-01-08T10:05:09;6.27;;;2.03;;
30605;SDS011;17371;51.328;3.860;2023-01-08T10:07:37;5.13;;;1.83;;
30605;SDS011;17371;51.328;3.860;2023-01-08T10:10:03;4.03;;;1.83;;
30605;SDS011;17371;51.328;3.860;2023-01-08T10:12:30;6.00;;;1.80;;
30605;SDS011;17371;51.328;3.860;2023-01-08T10:14:57;5.43;;;1.77;;
30605;SDS011;17371;51.328;3.860;2023-01-08T10:17:25;4.03;;;1.73;;
30605;SDS011;17371;51.328;3.860;2023-01-08T10:19:52;3.97;;;1.70;;
30605;SDS011;17371;51.328;3.860;2023-01-08T10:22:19;5.07;;;2.20;;
30605;SDS011;17371;51.328;3.860;2023-01-08T10:24:46;5.47;;;1.70;;
30605;SDS011;17371;51.328;3.860;2023-01-08T10:27:13;5.35;;;1.35;;
30605;SDS011;17371;51.328;3.860;2023-01-08T10:29:39;5.75;;;1.70;;
30605;SDS011;17371;51.328;3.860;2023-01-08T10:32:06;6.03;;;2.00;;
30605;SDS011;17371;51.328;3.860;2023-01-08T10:34:38;3.65;;;1.20;;
30605;SDS011;17371;51.328;3.860;2023-01-08T10:37:12;2.00;;;1.23;;
30605;SDS011;17371;51.328;3.860;2023-01-08T10:39:43;5.13;;;1.80;;
30605;SDS011;17371;51.328;3.860;2023-01-08T10:42:09;5.43;;;1.80;;
30605;SDS011;17371;51.328;3.860;2023-01-08T10:44:35;4.37;;;1.57;;
30605;SDS011;17371;51.328;3.860;2023-01-08T10:47:00;8.90;;;1.60;;
30605;SDS011;17371;51.328;3.860;2023-01-08T10:49:27;6.15;;;1.50;;
30605;SDS011;17371;51.328;3.860;2023-01-08T10:51:55;5.67;;;1.60;;
30605;SDS011;17371;51.328;3.860;2023-01-08T10:54:30;3.28;;;0.98;;
30605;SDS011;17371;51.328;3.860;2023-01-08T10:56:59;2.80;;;1.60;;
30605;SDS011;17371;51.328;3.860;2023-01-08T10:59:25;3.88;;;1.60;;
30605;SDS011;17371;51.328;3.860;2023-01-08T11:01:50;5.17;;;1.60;;
30605;SDS011;17371;51.328;3.860;2023-01-08T11:04:19;7.20;;;1.83;;
30605;SDS011;17371;51.328;3.860;2023-01-08T11:06:46;3.63;;;1.40;;
30605;SDS011;17371;51.328;3.860;2023-01-08T11:09:14;5.30;;;1.83;;
30605;SDS011;17371;51.328;3.860;2023-01-08T11:11:41;9.27;;;1.75;;
30605;SDS011;17371;51.328;3.860;2023-01-08T11:14:12;5.43;;;1.50;;
30605;SDS011;17371;51.328;3.860;2023-01-08T11:16:41;6.78;;;1.80;;
30605;SDS011;17371;51.328;3.860;2023-01-08T11:19:13;5.18;;;1.50;;
30605;SDS011;17371;51.328;3.860;2023-01-08T11:21:40;4.88;;;1.70;;
30605;SDS011;17371;51.328;3.860;2023-01-08T11:24:10;8.87;;;1.70;;
30605;SDS011;17371;51.328;3.860;2023-01-08T11:26:39;2.75;;;1.20;;
30605;SDS011;17371;51.328;3.860;2023-01-08T11:29:11;5.93;;;1.40;;
30605;SDS011;17371;51.328;3.860;2023-01-08T11:31:40;6.07;;;1.25;;
30605;SDS011;17371;51.328;3.860;2023-01-08T11:34:11;6.95;;;1.42;;
30605;SDS011;17371;51.328;3.860;2023-01-08T11:36:42;6.20;;;1.47;;
30605;SDS011;17371;51.328;3.860;2023-01-08T11:39:10;7.63;;;1.65;;
30605;SDS011;17371;51.328;3.860;2023-01-08T11:41:41;3.90;;;1.33;;
30605;SDS011;17371;51.328;3.860;2023-01-08T11:44:22;6.63;;;1.48;;
30605;SDS011;17371;51.328;3.860;2023-01-08T11:46:55;6.03;;;1.20;;
30605;SDS011;17371;51.328;3.860;2023-01-08T11:49:38;3.88;;;1.10;;
30605;SDS011;17371;51.328;3.860;2023-01-08T11:52:15;6.80;;;1.38;;
30605;SDS011;17371;51.328;3.860;2023-01-08T11:55:02;8.50;;;1.77;;
30605;SDS011;17371;51.328;3.860;2023-01-08T11:57:38;8.25;;;1.83;;
30605;SDS011;17371;51.328;3.860;2023-01-08T12:00:14;6.60;;;1.83;;
30605;SDS011;17371;51.328;3.860;2023-01-08T12:02:49;4.88;;;1.40;;
30605;SDS011;17371;51.328;3.860;2023-01-08T12:05:27;7.97;;;1.42;;
30605;SDS011;17371;51.328;3.860;2023-01-08T12:08:02;7.67;;;1.40;;
30605;SDS011;17371;51.328;3.860;2023-01-08T12:10:29;8.55;;;1.60;;
30605;SDS011;17371;51.328;3.860;2023-01-08T12:13:02;6.28;;;1.60;;
30605;SDS011;17371;51.328;3.860;2023-01-08T12:15:43;12.48;;;2.60;;
30605;SDS011;17371;51.328;3.860;2023-01-08T12:18:17;9.77;;;2.40;;
30605;SDS011;17371;51.328;3.860;2023-01-08T12:20:47;5.03;;;1.27;;
30605;SDS011;17371;51.328;3.860;2023-01-08T12:23:20;8.80;;;1.73;;
30605;SDS011;17371;51.328;3.860;2023-01-08T12:25:56;6.80;;;1.70;;
30605;SDS011;17371;51.328;3.860;2023-01-08T12:28:33;10.70;;;2.03;;
30605;SDS011;17371;51.328;3.860;2023-01-08T12:31:14;6.38;;;1.70;;
30605;SDS011;17371;51.328;3.860;2023-01-08T12:33:48;6.50;;;2.10;;
30605;SDS011;17371;51.328;3.860;2023-01-08T12:36:17;7.60;;;1.60;;
30605;SDS011;17371;51.328;3.860;2023-01-08T12:38:47;7.90;;;1.73;;
30605;SDS011;17371;51.328;3.860;2023-01-08T12:41:16;9.13;;;2.30;;
30605;SDS011;17371;51.328;3.860;2023-01-08T12:43:44;6.82;;;1.90;;
30605;SDS011;17371;51.328;3.860;2023-01-08T12:46:15;3.67;;;1.57;;
30605;SDS011;17371;51.328;3.860;2023-01-08T12:48:41;9.88;;;1.65;;
30605;SDS011;17371;51.328;3.860;2023-01-08T12:51:09;9.05;;;2.00;;
30605;SDS011;17371;51.328;3.860;2023-01-08T12:53:39;9.18;;;2.25;;
30605;SDS011;17371;51.328;3.860;2023-01-08T12:56:09;6.57;;;1.90;;
30605;SDS011;17371;51.328;3.860;2023-01-08T12:58:42;8.17;;;1.93;;
30605;SDS011;17371;51.328;3.860;2023-01-08T13:01:24;7.05;;;1.85;;
30605;SDS011;17371;51.328;3.860;2023-01-08T13:03:56;7.82;;;1.92;;
30605;SDS011;17371;51.328;3.860;2023-01-08T13:06:22;9.13;;;1.67;;
30605;SDS011;17371;51.328;3.860;2023-01-08T13:08:48;7.60;;;1.70;;
30605;SDS011;17371;51.328;3.860;2023-01-08T13:11:22;9.35;;;2.08;;
30605;SDS011;17371;51.328;3.860;2023-01-08T13:13:48;7.50;;;1.48;;
30605;SDS011;17371;51.328;3.860;2023-01-08T13:16:24;11.40;;;1.73;;
30605;SDS011;17371;51.328;3.860;2023-01-08T13:18:50;12.68;;;2.28;;
30605;SDS011;17371;51.328;3.860;2023-01-08T13:21:26;6.90;;;1.60;;
30605;SDS011;17371;51.328;3.860;2023-01-08T13:24:03;8.40;;;2.28;;
30605;SDS011;17371;51.328;3.860;2023-01-08T13:26:31;6.43;;;1.67;;
30605;SDS011;17371;51.328;3.860;2023-01-08T13:29:21;7.73;;;1.60;;
30605;SDS011;17371;51.328;3.860;2023-01-08T13:31:50;7.03;;;1.80;;
30605;SDS011;17371;51.328;3.860;2023-01-08T13:34:17;8.85;;;1.60;;
30605;SDS011;17371;51.328;3.860;2023-01-08T13:36:53;7.05;;;1.85;;
30605;SDS011;17371;51.328;3.860;2023-01-08T13:39:20;10.15;;;1.75;;
30605;SDS011;17371;51.328;3.860;2023-01-08T13:41:55;7.07;;;2.13;;
30605;SDS011;17371;51.328;3.860;2023-01-08T13:44:22;7.00;;;1.60;;
30605;SDS011;17371;51.328;3.860;2023-01-08T13:46:53;5.55;;;1.90;;
30605;SDS011;17371;51.328;3.860;2023-01-08T13:49:21;7.25;;;1.60;;
30605;SDS011;17371;51.328;3.860;2023-01-08T13:51:49;6.25;;;1.88;;
30605;SDS011;17371;51.328;3.860;2023-01-08T13:54:17;7.93;;;1.60;;
30605;SDS011;17371;51.328;3.860;2023-01-08T13:56:45;10.55;;;2.08;;
30605;SDS011;17371;51.328;3.860;2023-01-08T13:59:16;7.97;;;1.60;;
30605;SDS011;17371;51.328;3.860;2023-01-08T14:01:50;6.30;;;1.55;;
30605;SDS011;17371;51.328;3.860;2023-01-08T14:04:19;5.60;;;1.90;;
30605;SDS011;17371;51.328;3.860;2023-01-08T14:06:44;6.10;;;1.58;;
30605;SDS011;17371;51.328;3.860;2023-01-08T14:09:13;9.77;;;2.20;;
30605;SDS011;17371;51.328;3.860;2023-01-08T14:11:45;8.77;;;1.60;;
30605;SDS011;17371;51.328;3.860;2023-01-08T14:14:11;8.45;;;2.00;;
30605;SDS011;17371;51.328;3.860;2023-01-08T14:16:38;5.93;;;1.40;;
30605;SDS011;17371;51.328;3.860;2023-01-08T14:19:05;7.18;;;1.70;;
30605;SDS011;17371;51.328;3.860;2023-01-08T14:21:31;7.80;;;2.15;;
30605;SDS011;17371;51.328;3.860;2023-01-08T14:23:56;9.73;;;1.67;;
30605;SDS011;17371;51.328;3.860;2023-01-08T14:26:24;11.98;;;2.63;;
30605;SDS011;17371;51.328;3.860;2023-01-08T14:28:52;9.70;;;3.05;;
30605;SDS011;17371;51.328;3.860;2023-01-08T14:31:18;13.00;;;3.28;;
30605;SDS011;17371;51.328;3.860;2023-01-08T14:33:45;8.23;;;1.73;;
30605;SDS011;17371;51.328;3.860;2023-01-08T14:36:13;8.82;;;2.85;;
30605;SDS011;17371;51.328;3.860;2023-01-08T14:38:39;13.73;;;2.43;;
30605;SDS011;17371;51.328;3.860;2023-01-08T14:41:05;9.68;;;2.60;;
30605;SDS011;17371;51.328;3.860;2023-01-08T14:43:32;9.83;;;3.53;;
30605;SDS011;17371;51.328;3.860;2023-01-08T14:45:59;21.25;;;5.90;;
30605;SDS011;17371;51.328;3.860;2023-01-08T14:48:27;18.05;;;6.32;;